RYR7BS LEBL-LPPR
Flight info
| Callsign | RYR7BS |
|---|---|
| Flight time | 1h 23m |
| Altitude | 31000 |
| Route | LOBAR N725 DIRMU/N0451F330 N725 DGO DCT NEA DCT ZMR L155 ADORO DCT INKIT |
| Aircraft | B38M/M-SDE1FGHILORVWXY/HB1 |
Departure
| Time | 2026-05-06 20:44 |
|---|---|
| Airport | Josep Tarradellas Barcelona-El Prat Airport (LEBL) |
Arrival
| Time | 2026-05-06 22:07 |
|---|---|
| Airport | Francisco de Sá Carneiro Airport (LPPR) |
| Time | Latitude | Longitude | Altitude | Speed | Heading |
|---|---|---|---|---|---|
| 2026-05-06 20:22 | 41.30230 | 2.07785 | 25 ft | 0 kts | 279° |
| 2026-05-06 20:33 | 41.30226 | 2.07815 | 27 ft | 4 kts | 286° |
| 2026-05-06 20:33 | 41.30216 | 2.07844 | 29 ft | 3 kts | 309° |
| 2026-05-06 20:34 | 41.30199 | 2.07861 | 24 ft | 4 kts | 335° |
| 2026-05-06 20:34 | 41.30176 | 2.07876 | 24 ft | 3 kts | 335° |
| 2026-05-06 20:34 | 41.30152 | 2.07891 | 25 ft | 4 kts | 333° |
| 2026-05-06 20:34 | 41.30140 | 2.07908 | 24 ft | 3 kts | 287° |
| 2026-05-06 20:35 | 41.30137 | 2.07940 | 21 ft | 4 kts | 269° |
| 2026-05-06 20:35 | 41.30139 | 2.07968 | 21 ft | 2 kts | 258° |
| 2026-05-06 20:35 | 41.30142 | 2.07984 | 23 ft | 2 kts | 252° |
| 2026-05-06 20:35 | 41.30145 | 2.07994 | 22 ft | 0 kts | 247° |
| 2026-05-06 20:38 | 41.30145 | 2.07993 | 21 ft | 1 kts | 247° |
| 2026-05-06 20:38 | 41.30127 | 2.07962 | 21 ft | 9 kts | 212° |
| 2026-05-06 20:38 | 41.30036 | 2.07992 | 20 ft | 18 kts | 154° |
| 2026-05-06 20:39 | 41.29916 | 2.08063 | 21 ft | 20 kts | 159° |
| 2026-05-06 20:39 | 41.29781 | 2.08131 | 22 ft | 22 kts | 158° |
| 2026-05-06 20:39 | 41.29626 | 2.08227 | 19 ft | 26 kts | 155° |
| 2026-05-06 20:39 | 41.29456 | 2.08329 | 20 ft | 27 kts | 155° |
| 2026-05-06 20:40 | 41.29285 | 2.08431 | 25 ft | 27 kts | 155° |
| 2026-05-06 20:40 | 41.29105 | 2.08539 | 19 ft | 30 kts | 155° |
| 2026-05-06 20:40 | 41.28914 | 2.08654 | 21 ft | 27 kts | 156° |
| 2026-05-06 20:40 | 41.28894 | 2.08820 | 19 ft | 21 kts | 65° |
| 2026-05-06 20:41 | 41.28959 | 2.09009 | 19 ft | 24 kts | 65° |
| 2026-05-06 20:41 | 41.29032 | 2.09224 | 22 ft | 26 kts | 66° |
| 2026-05-06 20:41 | 41.29108 | 2.09448 | 20 ft | 28 kts | 66° |
| 2026-05-06 20:41 | 41.29190 | 2.09686 | 19 ft | 29 kts | 65° |
| 2026-05-06 20:42 | 41.29276 | 2.09934 | 19 ft | 30 kts | 65° |
| 2026-05-06 20:42 | 41.29358 | 2.10154 | 18 ft | 17 kts | 64° |
| 2026-05-06 20:42 | 41.29326 | 2.10269 | 16 ft | 14 kts | 152° |
| 2026-05-06 20:42 | 41.29226 | 2.10317 | 17 ft | 15 kts | 191° |
| 2026-05-06 20:43 | 41.29203 | 2.10277 | 18 ft | 5 kts | 244° |
| 2026-05-06 20:43 | 41.29186 | 2.10230 | 20 ft | 7 kts | 244° |
| 2026-05-06 20:43 | 41.29155 | 2.10144 | 21 ft | 17 kts | 245° |
| 2026-05-06 20:43 | 41.29003 | 2.09702 | 22 ft | 94 kts | 245° |
| 2026-05-06 20:44 | 41.28628 | 2.08595 | 27 ft | 165 kts | 245° |
| 2026-05-06 20:44 | 41.28105 | 2.07105 | 654 ft | 180 kts | 243° |
| 2026-05-06 20:44 | 41.27454 | 2.05708 | 1742 ft | 178 kts | 234° |
| 2026-05-06 20:44 | 41.26515 | 2.04607 | 2594 ft | 187 kts | 206° |
| 2026-05-06 20:45 | 41.25225 | 2.04082 | 3341 ft | 202 kts | 190° |
| 2026-05-06 20:45 | 41.23758 | 2.04025 | 4022 ft | 220 kts | 175° |
| 2026-05-06 20:45 | 41.22173 | 2.04485 | 4634 ft | 245 kts | 170° |
| 2026-05-06 20:45 | 41.20464 | 2.04393 | 5565 ft | 247 kts | 197° |
| 2026-05-06 20:46 | 41.18870 | 2.03720 | 6758 ft | 243 kts | 201° |
| 2026-05-06 20:46 | 41.17363 | 2.02660 | 7657 ft | 249 kts | 224° |
| 2026-05-06 20:46 | 41.16449 | 2.00775 | 8688 ft | 244 kts | 255° |
| 2026-05-06 20:46 | 41.16310 | 1.98537 | 9651 ft | 246 kts | 280° |
| 2026-05-06 20:47 | 41.16937 | 1.96451 | 10584 ft | 247 kts | 305° |
| 2026-05-06 20:47 | 41.18131 | 1.94804 | 11393 ft | 254 kts | 314° |
| 2026-05-06 20:47 | 41.19285 | 1.93007 | 12240 ft | 256 kts | 307° |
| 2026-05-06 20:47 | 41.20419 | 1.91140 | 13098 ft | 261 kts | 308° |
| 2026-05-06 20:48 | 41.21584 | 1.89262 | 13897 ft | 266 kts | 308° |
| 2026-05-06 20:48 | 41.22778 | 1.87359 | 14660 ft | 269 kts | 309° |
| 2026-05-06 20:48 | 41.24114 | 1.85541 | 15219 ft | 282 kts | 313° |
| 2026-05-06 20:48 | 41.25552 | 1.83655 | 15639 ft | 298 kts | 313° |
| 2026-05-06 20:49 | 41.27068 | 1.81652 | 16008 ft | 316 kts | 313° |
| 2026-05-06 20:49 | 41.28644 | 1.79561 | 16325 ft | 333 kts | 313° |
| 2026-05-06 20:49 | 41.30343 | 1.77298 | 16711 ft | 348 kts | 313° |
| 2026-05-06 20:49 | 41.32064 | 1.75005 | 17218 ft | 356 kts | 313° |
| 2026-05-06 20:50 | 41.33816 | 1.72667 | 18038 ft | 357 kts | 313° |
| 2026-05-06 20:50 | 41.35585 | 1.70303 | 18606 ft | 362 kts | 313° |
| 2026-05-06 20:50 | 41.37367 | 1.67920 | 19246 ft | 364 kts | 313° |
| 2026-05-06 20:50 | 41.39157 | 1.65523 | 19856 ft | 367 kts | 313° |
| 2026-05-06 20:51 | 41.40967 | 1.63099 | 20472 ft | 369 kts | 312° |
| 2026-05-06 20:51 | 41.42784 | 1.60666 | 21084 ft | 371 kts | 312° |
| 2026-05-06 20:51 | 41.44613 | 1.58212 | 21685 ft | 374 kts | 312° |
| 2026-05-06 20:51 | 41.46450 | 1.55745 | 22291 ft | 376 kts | 311° |
| 2026-05-06 20:52 | 41.48274 | 1.53239 | 22900 ft | 376 kts | 307° |
| 2026-05-06 20:52 | 41.49599 | 1.50260 | 23444 ft | 374 kts | 288° |
| 2026-05-06 20:52 | 41.50172 | 1.46927 | 23895 ft | 374 kts | 276° |
| 2026-05-06 20:52 | 41.50474 | 1.43470 | 24347 ft | 377 kts | 275° |
| 2026-05-06 20:53 | 41.50744 | 1.39971 | 24817 ft | 379 kts | 274° |
| 2026-05-06 20:53 | 41.50992 | 1.36464 | 25280 ft | 380 kts | 274° |
| 2026-05-06 20:53 | 41.51226 | 1.32936 | 25728 ft | 382 kts | 274° |
| 2026-05-06 20:53 | 41.51452 | 1.29391 | 26174 ft | 384 kts | 273° |
| 2026-05-06 20:54 | 41.51673 | 1.25861 | 26609 ft | 386 kts | 273° |
| 2026-05-06 20:54 | 41.51895 | 1.22279 | 27053 ft | 388 kts | 273° |
| 2026-05-06 20:54 | 41.52116 | 1.18677 | 27467 ft | 390 kts | 273° |
| 2026-05-06 20:54 | 41.52338 | 1.15053 | 27880 ft | 393 kts | 272° |
| 2026-05-06 20:55 | 41.52559 | 1.11416 | 28287 ft | 395 kts | 272° |
| 2026-05-06 20:55 | 41.52781 | 1.07752 | 28696 ft | 397 kts | 272° |
| 2026-05-06 20:55 | 41.53003 | 1.04068 | 29091 ft | 399 kts | 272° |
| 2026-05-06 20:55 | 41.53225 | 1.00356 | 29469 ft | 401 kts | 272° |
| 2026-05-06 20:56 | 41.53443 | 0.96687 | 29935 ft | 401 kts | 272° |
| 2026-05-06 20:56 | 41.53662 | 0.92986 | 30425 ft | 398 kts | 272° |
| 2026-05-06 20:56 | 41.53880 | 0.89301 | 30872 ft | 397 kts | 272° |
| 2026-05-06 20:57 | 41.54308 | 0.81964 | 30961 ft | 395 kts | 272° |
| 2026-05-06 20:57 | 41.54731 | 0.74638 | 30958 ft | 395 kts | 272° |
| 2026-05-06 20:58 | 41.55225 | 0.67315 | 30952 ft | 398 kts | 279° |
| 2026-05-06 20:58 | 41.56198 | 0.63845 | 30957 ft | 405 kts | 296° |
| 2026-05-06 20:58 | 41.57821 | 0.60787 | 30968 ft | 410 kts | 302° |
| 2026-05-06 20:59 | 41.61316 | 0.54716 | 30966 ft | 412 kts | 303° |
| 2026-05-06 20:59 | 41.64260 | 0.49705 | 30966 ft | 412 kts | 303° |
| 2026-05-06 21:00 | 41.67823 | 0.43674 | 30969 ft | 412 kts | 303° |
| 2026-05-06 21:00 | 41.71378 | 0.37652 | 30963 ft | 413 kts | 304° |
| 2026-05-06 21:01 | 41.74706 | 0.31491 | 30950 ft | 405 kts | 290° |
| 2026-05-06 21:01 | 41.76518 | 0.24393 | 30960 ft | 403 kts | 285° |
| 2026-05-06 21:02 | 41.78246 | 0.17235 | 30951 ft | 403 kts | 284° |
| 2026-05-06 21:02 | 41.79935 | 0.10066 | 30952 ft | 403 kts | 284° |
| 2026-05-06 21:03 | 41.81619 | 0.02873 | 30955 ft | 404 kts | 284° |
| 2026-05-06 21:03 | 41.83288 | -0.04277 | 30954 ft | 404 kts | 284° |
| 2026-05-06 21:04 | 41.84965 | -0.11489 | 30958 ft | 405 kts | 284° |
| 2026-05-06 21:04 | 41.86639 | -0.18708 | 30958 ft | 405 kts | 284° |
| 2026-05-06 21:05 | 41.88310 | -0.25940 | 30966 ft | 406 kts | 284° |
| 2026-05-06 21:05 | 41.89978 | -0.33180 | 30968 ft | 406 kts | 284° |
| 2026-05-06 21:06 | 41.91635 | -0.40382 | 30970 ft | 407 kts | 284° |
| 2026-05-06 21:06 | 41.93303 | -0.47652 | 30969 ft | 407 kts | 284° |
| 2026-05-06 21:07 | 41.94966 | -0.54924 | 30963 ft | 407 kts | 284° |
| 2026-05-06 21:07 | 41.96625 | -0.62205 | 30967 ft | 407 kts | 284° |
| 2026-05-06 21:08 | 41.98270 | -0.69447 | 30970 ft | 408 kts | 284° |
| 2026-05-06 21:08 | 41.99921 | -0.76742 | 30970 ft | 408 kts | 284° |
| 2026-05-06 21:09 | 42.01570 | -0.84048 | 30976 ft | 408 kts | 284° |
| 2026-05-06 21:09 | 42.03212 | -0.91371 | 30977 ft | 408 kts | 284° |
| 2026-05-06 21:10 | 42.04849 | -0.98695 | 30979 ft | 409 kts | 284° |
| 2026-05-06 21:10 | 42.06482 | -1.06030 | 30980 ft | 409 kts | 284° |
| 2026-05-06 21:11 | 42.08114 | -1.13381 | 30986 ft | 409 kts | 284° |
| 2026-05-06 21:11 | 42.09731 | -1.20687 | 30993 ft | 410 kts | 284° |
| 2026-05-06 21:12 | 42.11359 | -1.28057 | 30998 ft | 410 kts | 284° |
| 2026-05-06 21:12 | 42.12983 | -1.35433 | 30997 ft | 410 kts | 284° |
| 2026-05-06 21:13 | 42.14601 | -1.42810 | 31002 ft | 411 kts | 284° |
| 2026-05-06 21:13 | 42.16218 | -1.50208 | 30991 ft | 411 kts | 284° |
| 2026-05-06 21:14 | 42.17820 | -1.57564 | 31002 ft | 411 kts | 284° |
| 2026-05-06 21:14 | 42.19429 | -1.64972 | 31000 ft | 412 kts | 284° |
| 2026-05-06 21:15 | 42.21035 | -1.72397 | 31000 ft | 412 kts | 284° |
| 2026-05-06 21:15 | 42.22638 | -1.79832 | 31008 ft | 412 kts | 284° |
| 2026-05-06 21:16 | 42.23825 | -1.87311 | 31001 ft | 409 kts | 269° |
| 2026-05-06 21:16 | 42.23487 | -1.91114 | 31007 ft | 409 kts | 255° |
| 2026-05-06 21:16 | 42.22794 | -1.94837 | 31011 ft | 409 kts | 258° |
| 2026-05-06 21:17 | 42.21611 | -2.02367 | 31011 ft | 410 kts | 258° |
| 2026-05-06 21:17 | 42.20455 | -2.09915 | 31030 ft | 410 kts | 258° |
| 2026-05-06 21:18 | 42.19308 | -2.17410 | 31017 ft | 410 kts | 258° |
| 2026-05-06 21:18 | 42.18149 | -2.24953 | 31014 ft | 411 kts | 258° |
| 2026-05-06 21:19 | 42.16985 | -2.32489 | 31030 ft | 410 kts | 258° |
| 2026-05-06 21:19 | 42.15821 | -2.39992 | 31018 ft | 411 kts | 258° |
| 2026-05-06 21:20 | 42.14646 | -2.47538 | 31027 ft | 411 kts | 258° |
| 2026-05-06 21:20 | 42.13464 | -2.55084 | 31019 ft | 411 kts | 258° |
| 2026-05-06 21:21 | 42.12277 | -2.62638 | 31014 ft | 411 kts | 258° |
| 2026-05-06 21:21 | 42.11087 | -2.70172 | 31015 ft | 411 kts | 258° |
| 2026-05-06 21:22 | 42.09897 | -2.77670 | 31020 ft | 412 kts | 258° |
| 2026-05-06 21:22 | 42.08687 | -2.85260 | 31010 ft | 412 kts | 258° |
| 2026-05-06 21:23 | 42.07488 | -2.92750 | 31006 ft | 412 kts | 258° |
| 2026-05-06 21:23 | 42.06274 | -3.00304 | 31006 ft | 412 kts | 257° |
| 2026-05-06 21:24 | 42.05053 | -3.07856 | 31002 ft | 413 kts | 257° |
| 2026-05-06 21:24 | 42.03826 | -3.15418 | 31008 ft | 413 kts | 257° |
| 2026-05-06 21:25 | 42.02603 | -3.22927 | 30984 ft | 414 kts | 257° |
| 2026-05-06 21:25 | 42.01365 | -3.30491 | 30993 ft | 414 kts | 257° |
| 2026-05-06 21:26 | 42.00119 | -3.38070 | 30977 ft | 414 kts | 257° |
| 2026-05-06 21:26 | 41.98868 | -3.45643 | 30979 ft | 415 kts | 257° |
| 2026-05-06 21:27 | 41.97603 | -3.53284 | 30967 ft | 428 kts | 257° |
| 2026-05-06 21:27 | 41.96277 | -3.61263 | 30963 ft | 439 kts | 257° |
| 2026-05-06 21:28 | 41.94943 | -3.69234 | 30976 ft | 440 kts | 257° |
| 2026-05-06 21:28 | 41.93594 | -3.77259 | 30962 ft | 440 kts | 257° |
| 2026-05-06 21:29 | 41.92237 | -3.85295 | 30961 ft | 440 kts | 256° |
| 2026-05-06 21:29 | 41.90883 | -3.93272 | 30972 ft | 441 kts | 256° |
| 2026-05-06 21:30 | 41.89515 | -4.01300 | 30973 ft | 441 kts | 256° |
| 2026-05-06 21:30 | 41.88140 | -4.09330 | 30960 ft | 441 kts | 256° |
| 2026-05-06 21:31 | 41.86760 | -4.17354 | 30957 ft | 441 kts | 256° |
| 2026-05-06 21:31 | 41.85374 | -4.25380 | 30959 ft | 441 kts | 256° |
| 2026-05-06 21:32 | 41.83980 | -4.33408 | 30961 ft | 442 kts | 256° |
| 2026-05-06 21:32 | 41.81886 | -4.45412 | 30962 ft | 443 kts | 256° |
| 2026-05-06 21:33 | 41.80475 | -4.53454 | 30959 ft | 443 kts | 256° |
| 2026-05-06 21:33 | 41.79056 | -4.61505 | 30959 ft | 443 kts | 256° |
| 2026-05-06 21:34 | 41.77641 | -4.69503 | 30967 ft | 444 kts | 255° |
| 2026-05-06 21:34 | 41.76209 | -4.77552 | 30965 ft | 444 kts | 255° |
| 2026-05-06 21:35 | 41.74773 | -4.85596 | 30968 ft | 444 kts | 255° |
| 2026-05-06 21:35 | 41.73333 | -4.93630 | 30967 ft | 443 kts | 255° |
| 2026-05-06 21:36 | 41.71886 | -5.01661 | 30966 ft | 443 kts | 255° |
| 2026-05-06 21:36 | 41.70435 | -5.09678 | 30956 ft | 443 kts | 255° |
| 2026-05-06 21:37 | 41.68992 | -5.17629 | 30953 ft | 443 kts | 255° |
| 2026-05-06 21:37 | 41.67532 | -5.25631 | 30940 ft | 443 kts | 255° |
| 2026-05-06 21:38 | 41.66066 | -5.33626 | 30934 ft | 442 kts | 255° |
| 2026-05-06 21:38 | 41.64597 | -5.41614 | 30932 ft | 442 kts | 255° |
| 2026-05-06 21:39 | 41.63119 | -5.49615 | 30928 ft | 442 kts | 255° |
| 2026-05-06 21:39 | 41.61639 | -5.57587 | 30922 ft | 442 kts | 254° |
| 2026-05-06 21:40 | 41.60162 | -5.65515 | 30924 ft | 442 kts | 254° |
| 2026-05-06 21:40 | 41.58670 | -5.73492 | 30918 ft | 441 kts | 254° |
| 2026-05-06 21:41 | 41.57176 | -5.81444 | 30917 ft | 441 kts | 254° |
| 2026-05-06 21:41 | 41.55675 | -5.89402 | 30917 ft | 441 kts | 254° |
| 2026-05-06 21:42 | 41.54180 | -5.97293 | 30916 ft | 441 kts | 254° |
| 2026-05-06 21:42 | 41.52669 | -6.05237 | 30914 ft | 441 kts | 254° |
| 2026-05-06 21:43 | 41.51154 | -6.13170 | 30913 ft | 441 kts | 254° |
| 2026-05-06 21:43 | 41.49634 | -6.21101 | 30914 ft | 441 kts | 254° |
| 2026-05-06 21:44 | 41.48133 | -6.29037 | 30913 ft | 441 kts | 255° |
| 2026-05-06 21:44 | 41.46711 | -6.36955 | 30912 ft | 441 kts | 255° |
| 2026-05-06 21:45 | 41.45266 | -6.44914 | 30913 ft | 441 kts | 254° |
| 2026-05-06 21:45 | 41.43816 | -6.52870 | 30917 ft | 442 kts | 254° |
| 2026-05-06 21:46 | 41.42605 | -6.59488 | 30820 ft | 442 kts | 254° |
| 2026-05-06 21:46 | 41.41873 | -6.63475 | 30620 ft | 442 kts | 254° |
| 2026-05-06 21:46 | 41.41141 | -6.67457 | 30142 ft | 443 kts | 254° |
| 2026-05-06 21:47 | 41.40403 | -6.71461 | 29548 ft | 445 kts | 254° |
| 2026-05-06 21:47 | 41.39663 | -6.75469 | 29002 ft | 447 kts | 254° |
| 2026-05-06 21:47 | 41.38926 | -6.79453 | 28502 ft | 449 kts | 254° |
| 2026-05-06 21:47 | 41.38175 | -6.83501 | 27986 ft | 450 kts | 254° |
| 2026-05-06 21:48 | 41.37422 | -6.87549 | 27448 ft | 452 kts | 254° |
| 2026-05-06 21:48 | 41.36663 | -6.91627 | 26937 ft | 453 kts | 254° |
| 2026-05-06 21:48 | 41.35899 | -6.95721 | 26413 ft | 455 kts | 254° |
| 2026-05-06 21:48 | 41.35131 | -6.99823 | 25885 ft | 457 kts | 254° |
| 2026-05-06 21:49 | 41.34368 | -7.03896 | 25364 ft | 458 kts | 255° |
| 2026-05-06 21:49 | 41.33596 | -7.08002 | 24848 ft | 456 kts | 255° |
| 2026-05-06 21:49 | 41.32827 | -7.12087 | 24328 ft | 454 kts | 255° |
| 2026-05-06 21:49 | 41.32059 | -7.16160 | 23804 ft | 451 kts | 255° |
| 2026-05-06 21:50 | 41.31295 | -7.20201 | 23247 ft | 448 kts | 255° |
| 2026-05-06 21:50 | 41.30538 | -7.24198 | 22678 ft | 445 kts | 255° |
| 2026-05-06 21:50 | 41.29782 | -7.28178 | 22164 ft | 442 kts | 255° |
| 2026-05-06 21:50 | 41.29042 | -7.32068 | 21674 ft | 438 kts | 255° |
| 2026-05-06 21:51 | 41.28294 | -7.35980 | 21160 ft | 435 kts | 253° |
| 2026-05-06 21:51 | 41.27402 | -7.39804 | 20423 ft | 431 kts | 251° |
| 2026-05-06 21:51 | 41.26501 | -7.43592 | 19627 ft | 429 kts | 251° |
| 2026-05-06 21:51 | 41.25615 | -7.47362 | 19097 ft | 423 kts | 252° |
| 2026-05-06 21:52 | 41.24748 | -7.51068 | 18612 ft | 415 kts | 252° |
| 2026-05-06 21:52 | 41.23898 | -7.54704 | 18098 ft | 416 kts | 252° |
| 2026-05-06 21:52 | 41.23042 | -7.58362 | 17541 ft | 414 kts | 252° |
| 2026-05-06 21:52 | 41.22187 | -7.62007 | 17052 ft | 411 kts | 252° |
| 2026-05-06 21:53 | 41.21340 | -7.65615 | 16573 ft | 409 kts | 252° |
| 2026-05-06 21:53 | 41.20495 | -7.69207 | 16074 ft | 406 kts | 252° |
| 2026-05-06 21:53 | 41.19652 | -7.72782 | 15588 ft | 404 kts | 252° |
| 2026-05-06 21:53 | 41.18816 | -7.76326 | 15103 ft | 401 kts | 252° |
| 2026-05-06 21:54 | 41.17980 | -7.79862 | 14623 ft | 399 kts | 252° |
| 2026-05-06 21:54 | 41.17151 | -7.83365 | 14144 ft | 397 kts | 252° |
| 2026-05-06 21:54 | 41.16328 | -7.86840 | 13652 ft | 392 kts | 252° |
| 2026-05-06 21:54 | 41.15513 | -7.90271 | 13119 ft | 385 kts | 251° |
| 2026-05-06 21:55 | 41.14716 | -7.93623 | 12655 ft | 377 kts | 251° |
| 2026-05-06 21:55 | 41.13934 | -7.96908 | 12203 ft | 370 kts | 251° |
| 2026-05-06 21:55 | 41.13176 | -8.00086 | 11756 ft | 363 kts | 251° |
| 2026-05-06 21:55 | 41.12410 | -8.03293 | 11309 ft | 357 kts | 251° |
| 2026-05-06 21:56 | 41.11677 | -8.06358 | 10987 ft | 348 kts | 251° |
| 2026-05-06 21:56 | 41.10964 | -8.09339 | 10985 ft | 329 kts | 251° |
| 2026-05-06 21:56 | 41.10272 | -8.12152 | 10970 ft | 312 kts | 250° |
| 2026-05-06 21:56 | 41.09641 | -8.14807 | 10894 ft | 292 kts | 251° |
| 2026-05-06 21:57 | 41.09047 | -8.17307 | 10517 ft | 281 kts | 250° |
| 2026-05-06 21:57 | 41.08450 | -8.19796 | 9801 ft | 284 kts | 250° |
| 2026-05-06 21:57 | 41.07855 | -8.22278 | 9189 ft | 281 kts | 250° |
| 2026-05-06 21:57 | 41.07257 | -8.24763 | 8668 ft | 283 kts | 250° |
| 2026-05-06 21:58 | 41.06663 | -8.27224 | 8354 ft | 279 kts | 250° |
| 2026-05-06 21:58 | 41.06069 | -8.29685 | 7911 ft | 279 kts | 251° |
| 2026-05-06 21:58 | 41.05478 | -8.32127 | 7540 ft | 278 kts | 251° |
| 2026-05-06 21:58 | 41.04913 | -8.34461 | 7160 ft | 277 kts | 251° |
| 2026-05-06 21:59 | 41.04329 | -8.36871 | 6937 ft | 270 kts | 251° |
| 2026-05-06 21:59 | 41.03766 | -8.39195 | 6820 ft | 259 kts | 251° |
| 2026-05-06 21:59 | 41.03228 | -8.41408 | 6752 ft | 246 kts | 251° |
| 2026-05-06 21:59 | 41.02709 | -8.43546 | 6486 ft | 245 kts | 251° |
| 2026-05-06 22:00 | 41.02177 | -8.45730 | 5964 ft | 253 kts | 251° |
| 2026-05-06 22:00 | 41.01638 | -8.47945 | 5621 ft | 250 kts | 252° |
| 2026-05-06 22:00 | 41.01106 | -8.50133 | 5264 ft | 248 kts | 252° |
| 2026-05-06 22:00 | 41.00579 | -8.52295 | 4912 ft | 246 kts | 252° |
| 2026-05-06 22:01 | 41.00054 | -8.54444 | 4550 ft | 244 kts | 253° |
| 2026-05-06 22:01 | 40.99532 | -8.56575 | 4180 ft | 242 kts | 253° |
| 2026-05-06 22:01 | 40.99340 | -8.58744 | 3801 ft | 237 kts | 282° |
| 2026-05-06 22:01 | 41.00022 | -8.60635 | 3447 ft | 231 kts | 314° |
| 2026-05-06 22:02 | 41.01327 | -8.61780 | 3108 ft | 225 kts | 342° |
| 2026-05-06 22:02 | 41.02798 | -8.62251 | 3058 ft | 209 kts | 348° |
| 2026-05-06 22:02 | 41.04165 | -8.62652 | 3017 ft | 193 kts | 348° |
| 2026-05-06 22:02 | 41.05440 | -8.63016 | 2924 ft | 181 kts | 348° |
| 2026-05-06 22:03 | 41.06613 | -8.63341 | 2807 ft | 165 kts | 349° |
| 2026-05-06 22:03 | 41.07705 | -8.63636 | 2654 ft | 156 kts | 349° |
| 2026-05-06 22:03 | 41.08772 | -8.63921 | 2524 ft | 156 kts | 350° |
| 2026-05-06 22:03 | 41.09839 | -8.64204 | 2368 ft | 156 kts | 349° |
| 2026-05-06 22:04 | 41.10899 | -8.64482 | 2197 ft | 155 kts | 349° |
| 2026-05-06 22:04 | 41.11967 | -8.64763 | 2067 ft | 156 kts | 349° |
| 2026-05-06 22:04 | 41.13030 | -8.65041 | 1936 ft | 154 kts | 349° |
| 2026-05-06 22:04 | 41.14079 | -8.65316 | 1835 ft | 153 kts | 349° |
| 2026-05-06 22:05 | 41.15110 | -8.65586 | 1716 ft | 152 kts | 349° |
| 2026-05-06 22:05 | 41.16134 | -8.65854 | 1603 ft | 146 kts | 349° |
| 2026-05-06 22:05 | 41.17116 | -8.66114 | 1463 ft | 141 kts | 351° |
| 2026-05-06 22:05 | 41.18075 | -8.66364 | 1322 ft | 140 kts | 351° |
| 2026-05-06 22:06 | 41.19036 | -8.66613 | 1091 ft | 141 kts | 349° |
| 2026-05-06 22:06 | 41.19995 | -8.66865 | 928 ft | 140 kts | 349° |
| 2026-05-06 22:06 | 41.20955 | -8.67119 | 753 ft | 141 kts | 350° |
| 2026-05-06 22:06 | 41.21904 | -8.67368 | 578 ft | 141 kts | 349° |
| 2026-05-06 22:07 | 41.22878 | -8.67610 | 362 ft | 144 kts | 349° |
| 2026-05-06 22:07 | 41.23838 | -8.67880 | 227 ft | 133 kts | 348° |
| 2026-05-06 22:07 | 41.24580 | -8.68070 | 212 ft | 86 kts | 349° |
| 2026-05-06 22:07 | 41.25036 | -8.68179 | 183 ft | 43 kts | 359° |
| 2026-05-06 22:08 | 41.25211 | -8.68134 | 181 ft | 20 kts | 17° |
| 2026-05-06 22:08 | 41.25268 | -8.68111 | 179 ft | 9 kts | 17° |
| 2026-05-06 22:08 | 41.25330 | -8.68084 | 177 ft | 9 kts | 18° |
| 2026-05-06 22:08 | 41.25352 | -8.68065 | 177 ft | 0 kts | 77° |
| 2026-05-06 22:09 | 41.25347 | -8.68056 | 177 ft | 3 kts | 128° |
| 2026-05-06 22:09 | 41.25314 | -8.68039 | 177 ft | 7 kts | 164° |
| 2026-05-06 22:09 | 41.25262 | -8.68020 | 180 ft | 7 kts | 167° |
| 2026-05-06 22:09 | 41.25204 | -8.68004 | 183 ft | 11 kts | 168° |
| 2026-05-06 22:10 | 41.25102 | -8.67974 | 187 ft | 19 kts | 167° |
| 2026-05-06 22:10 | 41.24970 | -8.67940 | 191 ft | 19 kts | 169° |
| 2026-05-06 22:10 | 41.24835 | -8.67871 | 204 ft | 23 kts | 149° |
| 2026-05-06 22:10 | 41.24667 | -8.67801 | 215 ft | 27 kts | 168° |
| 2026-05-06 22:11 | 41.24455 | -8.67746 | 221 ft | 34 kts | 168° |
| 2026-05-06 22:11 | 41.24236 | -8.67609 | 237 ft | 36 kts | 142° |
| 2026-05-06 22:11 | 41.24007 | -8.67524 | 239 ft | 32 kts | 169° |
| 2026-05-06 22:11 | 41.23781 | -8.67464 | 239 ft | 34 kts | 168° |
| 2026-05-06 22:12 | 41.23602 | -8.67416 | 239 ft | 21 kts | 168° |
| 2026-05-06 22:12 | 41.23527 | -8.67346 | 239 ft | 9 kts | 115° |
| 2026-05-06 22:12 | 41.23508 | -8.67292 | 239 ft | 3 kts | 114° |
| 2026-05-06 22:12 | 41.23506 | -8.67288 | 239 ft | 0 kts | 114° |